sensor_id;sensor_type;location;lat;lon;timestamp;temperature;humidity
69009;SHT31;56065;52.472;13.380;2023-08-06T00:00:38;19.77;84.31
69009;SHT31;56065;52.472;13.380;2023-08-06T00:03:03;19.79;84.23
69009;SHT31;56065;52.472;13.380;2023-08-06T00:05:29;19.85;84.10
69009;SHT31;56065;52.472;13.380;2023-08-06T00:07:54;19.85;84.09
69009;SHT31;56065;52.472;13.380;2023-08-06T00:10:19;19.79;84.19
69009;SHT31;56065;52.472;13.380;2023-08-06T00:12:45;19.79;84.14
69009;SHT31;56065;52.472;13.380;2023-08-06T00:15:11;19.72;84.30
69009;SHT31;56065;52.472;13.380;2023-08-06T00:17:36;19.72;84.27
69009;SHT31;56065;52.472;13.380;2023-08-06T00:20:03;19.70;84.13
69009;SHT31;56065;52.472;13.380;2023-08-06T00:22:40;19.67;84.36
69009;SHT31;56065;52.472;13.380;2023-08-06T00:25:05;19.66;84.29
69009;SHT31;56065;52.472;13.380;2023-08-06T00:27:31;19.66;84.48
69009;SHT31;56065;52.472;13.380;2023-08-06T00:29:57;19.66;84.48
69009;SHT31;56065;52.472;13.380;2023-08-06T00:32:23;19.62;84.33
69009;SHT31;56065;52.472;13.380;2023-08-06T00:34:48;19.58;84.65
69009;SHT31;56065;52.472;13.380;2023-08-06T00:37:17;19.55;84.73
69009;SHT31;56065;52.472;13.380;2023-08-06T00:39:43;19.62;84.41
69009;SHT31;56065;52.472;13.380;2023-08-06T00:42:09;19.61;84.59
69009;SHT31;56065;52.472;13.380;2023-08-06T00:44:35;19.62;84.43
69009;SHT31;56065;52.472;13.380;2023-08-06T00:47:01;19.62;84.45
69009;SHT31;56065;52.472;13.380;2023-08-06T00:49:27;19.62;84.27
69009;SHT31;56065;52.472;13.380;2023-08-06T00:51:52;19.61;84.57
69009;SHT31;56065;52.472;13.380;2023-08-06T00:54:18;19.54;84.81
69009;SHT31;56065;52.472;13.380;2023-08-06T00:56:43;19.55;84.56
69009;SHT31;56065;52.472;13.380;2023-08-06T00:59:09;19.58;84.62
69009;SHT31;56065;52.472;13.380;2023-08-06T01:01:35;19.58;84.37
69009;SHT31;56065;52.472;13.380;2023-08-06T01:04:01;19.52;84.65
69009;SHT31;56065;52.472;13.380;2023-08-06T01:06:50;19.55;84.60
69009;SHT31;56065;52.472;13.380;2023-08-06T01:15:19;19.54;84.68
69009;SHT31;56065;52.472;13.380;2023-08-06T01:17:46;19.48;84.69
69009;SHT31;56065;52.472;13.380;2023-08-06T01:20:11;19.39;85.06
69009;SHT31;56065;52.472;13.380;2023-08-06T01:22:36;19.41;85.14
69009;SHT31;56065;52.472;13.380;2023-08-06T01:25:02;19.41;85.09
69009;SHT31;56065;52.472;13.380;2023-08-06T01:27:44;19.34;85.20
69009;SHT31;56065;52.472;13.380;2023-08-06T01:30:22;19.19;85.76
69009;SHT31;56065;52.472;13.380;2023-08-06T01:32:50;19.19;85.75
69009;SHT31;56065;52.472;13.380;2023-08-06T01:35:18;19.24;85.63
69009;SHT31;56065;52.472;13.380;2023-08-06T01:37:44;19.18;85.93
69009;SHT31;56065;52.472;13.380;2023-08-06T01:40:11;19.19;85.98
69009;SHT31;56065;52.472;13.380;2023-08-06T01:42:37;19.07;86.38
69009;SHT31;56065;52.472;13.380;2023-08-06T01:45:03;19.07;86.42
69009;SHT31;56065;52.472;13.380;2023-08-06T01:47:29;19.12;86.22
69009;SHT31;56065;52.472;13.380;2023-08-06T01:49:54;19.11;86.18
69009;SHT31;56065;52.472;13.380;2023-08-06T01:52:19;19.08;86.55
69009;SHT31;56065;52.472;13.380;2023-08-06T01:54:44;19.11;86.48
69009;SHT31;56065;52.472;13.380;2023-08-06T01:57:10;18.97;87.22
69009;SHT31;56065;52.472;13.380;2023-08-06T01:59:35;19.01;86.79
69009;SHT31;56065;52.472;13.380;2023-08-06T02:02:00;19.05;86.80
69009;SHT31;56065;52.472;13.380;2023-08-06T02:04:26;19.03;87.06
69009;SHT31;56065;52.472;13.380;2023-08-06T02:06:51;19.05;86.84
69009;SHT31;56065;52.472;13.380;2023-08-06T02:09:17;19.08;86.96
69009;SHT31;56065;52.472;13.380;2023-08-06T02:11:42;19.11;86.97
69009;SHT31;56065;52.472;13.380;2023-08-06T02:14:07;19.04;87.27
69009;SHT31;56065;52.472;13.380;2023-08-06T02:16:32;19.05;87.00
69009;SHT31;56065;52.472;13.380;2023-08-06T02:18:58;19.04;86.77
69009;SHT31;56065;52.472;13.380;2023-08-06T02:21:23;19.07;87.13
69009;SHT31;56065;52.472;13.380;2023-08-06T02:23:48;19.03;87.40
69009;SHT31;56065;52.472;13.380;2023-08-06T02:26:14;19.07;87.32
69009;SHT31;56065;52.472;13.380;2023-08-06T02:28:39;18.88;87.87
69009;SHT31;56065;52.472;13.380;2023-08-06T02:31:05;18.88;87.77
69009;SHT31;56065;52.472;13.380;2023-08-06T02:33:31;18.90;87.78
69009;SHT31;56065;52.472;13.380;2023-08-06T02:36:04;18.91;87.41
69009;SHT31;56065;52.472;13.380;2023-08-06T02:38:30;18.98;87.46
69009;SHT31;56065;52.472;13.380;2023-08-06T02:40:56;18.90;87.29
69009;SHT31;56065;52.472;13.380;2023-08-06T02:43:21;18.94;87.32
69009;SHT31;56065;52.472;13.380;2023-08-06T02:45:47;18.93;87.51
69009;SHT31;56065;52.472;13.380;2023-08-06T02:48:12;18.97;87.60
69009;SHT31;56065;52.472;13.380;2023-08-06T02:50:38;18.98;87.64
69009;SHT31;56065;52.472;13.380;2023-08-06T02:53:05;19.01;87.36
69009;SHT31;56065;52.472;13.380;2023-08-06T02:55:31;18.98;87.39
69009;SHT31;56065;52.472;13.380;2023-08-06T02:57:56;18.94;87.38
69009;SHT31;56065;52.472;13.380;2023-08-06T03:00:21;18.94;87.28
69009;SHT31;56065;52.472;13.380;2023-08-06T03:02:46;18.87;87.49
69009;SHT31;56065;52.472;13.380;2023-08-06T03:05:12;18.84;87.66
69009;SHT31;56065;52.472;13.380;2023-08-06T03:07:37;18.71;87.75
69009;SHT31;56065;52.472;13.380;2023-08-06T03:10:03;18.73;87.74
69009;SHT31;56065;52.472;13.380;2023-08-06T03:12:28;18.73;87.69
69009;SHT31;56065;52.472;13.380;2023-08-06T03:14:54;18.66;87.97
69009;SHT31;56065;52.472;13.380;2023-08-06T03:17:20;18.64;87.79
69009;SHT31;56065;52.472;13.380;2023-08-06T03:19:45;18.52;88.21
69009;SHT31;56065;52.472;13.380;2023-08-06T03:22:10;18.53;87.94
69009;SHT31;56065;52.472;13.380;2023-08-06T03:24:36;18.56;88.02
69009;SHT31;56065;52.472;13.380;2023-08-06T03:27:01;18.57;87.85
69009;SHT31;56065;52.472;13.380;2023-08-06T03:29:27;18.60;88.00
69009;SHT31;56065;52.472;13.380;2023-08-06T03:31:52;18.67;87.86
69009;SHT31;56065;52.472;13.380;2023-08-06T03:34:18;18.66;87.96
69009;SHT31;56065;52.472;13.380;2023-08-06T03:36:43;18.67;87.86
69009;SHT31;56065;52.472;13.380;2023-08-06T03:39:08;18.67;88.04
69009;SHT31;56065;52.472;13.380;2023-08-06T03:41:34;18.67;88.13
69009;SHT31;56065;52.472;13.380;2023-08-06T03:43:59;18.68;88.03
69009;SHT31;56065;52.472;13.380;2023-08-06T03:46:27;18.68;87.72
69009;SHT31;56065;52.472;13.380;2023-08-06T03:48:53;18.68;87.98
69009;SHT31;56065;52.472;13.380;2023-08-06T03:51:18;18.67;87.73
69009;SHT31;56065;52.472;13.380;2023-08-06T03:53:43;18.63;87.67
69009;SHT31;56065;52.472;13.380;2023-08-06T03:56:09;18.55;88.16
69009;SHT31;56065;52.472;13.380;2023-08-06T03:58:34;18.57;87.98
69009;SHT31;56065;52.472;13.380;2023-08-06T04:01:00;18.60;87.99
69009;SHT31;56065;52.472;13.380;2023-08-06T04:03:26;18.61;88.07
69009;SHT31;56065;52.472;13.380;2023-08-06T04:05:52;18.63;87.94
69009;SHT31;56065;52.472;13.380;2023-08-06T04:08:17;18.66;87.85
69009;SHT31;56065;52.472;13.380;2023-08-06T04:10:43;18.68;87.84
69009;SHT31;56065;52.472;13.380;2023-08-06T04:13:08;18.67;87.69
69009;SHT31;56065;52.472;13.380;2023-08-06T04:15:34;18.71;87.33
69009;SHT31;56065;52.472;13.380;2023-08-06T04:17:59;18.64;87.74
69009;SHT31;56065;52.472;13.380;2023-08-06T04:20:25;18.57;88.12
69009;SHT31;56065;52.472;13.380;2023-08-06T04:22:50;18.55;88.12
69009;SHT31;56065;52.472;13.380;2023-08-06T04:25:15;18.57;88.31
69009;SHT31;56065;52.472;13.380;2023-08-06T04:27:48;18.57;88.14
69009;SHT31;56065;52.472;13.380;2023-08-06T04:30:14;18.47;88.29
69009;SHT31;56065;52.472;13.380;2023-08-06T04:32:39;18.59;87.91
69009;SHT31;56065;52.472;13.380;2023-08-06T04:35:05;18.61;87.57
69009;SHT31;56065;52.472;13.380;2023-08-06T04:37:31;18.59;87.89
69009;SHT31;56065;52.472;13.380;2023-08-06T04:39:56;18.59;88.26
69009;SHT31;56065;52.472;13.380;2023-08-06T04:42:21;18.64;87.92
69009;SHT31;56065;52.472;13.380;2023-08-06T04:44:47;18.70;87.93
69009;SHT31;56065;52.472;13.380;2023-08-06T04:47:12;18.73;88.03
69009;SHT31;56065;52.472;13.380;2023-08-06T04:49:37;18.74;88.04
69009;SHT31;56065;52.472;13.380;2023-08-06T04:52:03;18.78;87.66
69009;SHT31;56065;52.472;13.380;2023-08-06T04:54:28;18.77;87.99
69009;SHT31;56065;52.472;13.380;2023-08-06T04:56:54;18.81;87.80
69009;SHT31;56065;52.472;13.380;2023-08-06T04:59:19;18.83;87.80
69009;SHT31;56065;52.472;13.380;2023-08-06T05:01:44;18.88;87.34
69009;SHT31;56065;52.472;13.380;2023-08-06T05:04:10;18.86;87.28
69009;SHT31;56065;52.472;13.380;2023-08-06T05:06:35;18.90;87.57
69009;SHT31;56065;52.472;13.380;2023-08-06T05:09:03;18.95;87.70
69009;SHT31;56065;52.472;13.380;2023-08-06T05:11:28;18.94;87.34
69009;SHT31;56065;52.472;13.380;2023-08-06T05:13:53;18.88;87.61
69009;SHT31;56065;52.472;13.380;2023-08-06T05:16:19;18.97;87.50
69009;SHT31;56065;52.472;13.380;2023-08-06T05:18:44;18.97;87.15
69009;SHT31;56065;52.472;13.380;2023-08-06T05:21:09;18.95;87.17
69009;SHT31;56065;52.472;13.380;2023-08-06T05:23:35;18.98;87.44
69009;SHT31;56065;52.472;13.380;2023-08-06T05:26:00;18.98;87.23
69009;SHT31;56065;52.472;13.380;2023-08-06T05:28:26;19.01;87.01
69009;SHT31;56065;52.472;13.380;2023-08-06T05:30:51;19.01;87.06
69009;SHT31;56065;52.472;13.380;2023-08-06T05:33:16;19.03;87.21
69009;SHT31;56065;52.472;13.380;2023-08-06T05:35:41;19.08;87.25
69009;SHT31;56065;52.472;13.380;2023-08-06T05:38:07;19.15;87.18
69009;SHT31;56065;52.472;13.380;2023-08-06T05:40:34;19.18;87.03
69009;SHT31;56065;52.472;13.380;2023-08-06T05:42:59;19.19;87.03
69009;SHT31;56065;52.472;13.380;2023-08-06T05:45:24;19.26;86.76
69009;SHT31;56065;52.472;13.380;2023-08-06T05:47:50;19.21;86.34
69009;SHT31;56065;52.472;13.380;2023-08-06T05:50:15;19.19;86.65
69009;SHT31;56065;52.472;13.380;2023-08-06T05:52:41;19.19;86.46
69009;SHT31;56065;52.472;13.380;2023-08-06T05:55:06;19.22;86.29
69009;SHT31;56065;52.472;13.380;2023-08-06T05:57:32;19.19;86.41
69009;SHT31;56065;52.472;13.380;2023-08-06T05:59:57;19.24;86.77
69009;SHT31;56065;52.472;13.380;2023-08-06T06:02:23;19.32;86.89
69009;SHT31;56065;52.472;13.380;2023-08-06T06:04:48;19.38;86.77
69009;SHT31;56065;52.472;13.380;2023-08-06T06:07:14;19.42;86.43
69009;SHT31;56065;52.472;13.380;2023-08-06T06:09:39;19.48;86.43
69009;SHT31;56065;52.472;13.380;2023-08-06T06:12:05;19.48;86.65
69009;SHT31;56065;52.472;13.380;2023-08-06T06:14:31;19.56;86.54
69009;SHT31;56065;52.472;13.380;2023-08-06T06:16:56;19.62;86.32
69009;SHT31;56065;52.472;13.380;2023-08-06T06:19:22;19.59;86.38
69009;SHT31;56065;52.472;13.380;2023-08-06T06:21:47;19.61;86.12
69009;SHT31;56065;52.472;13.380;2023-08-06T06:24:13;19.63;85.95
69009;SHT31;56065;52.472;13.380;2023-08-06T06:26:38;19.59;86.30
69009;SHT31;56065;52.472;13.380;2023-08-06T06:29:04;19.58;86.48
69009;SHT31;56065;52.472;13.380;2023-08-06T06:31:29;19.63;86.63
69009;SHT31;56065;52.472;13.380;2023-08-06T06:33:55;19.73;86.47
69009;SHT31;56065;52.472;13.380;2023-08-06T06:36:20;19.76;86.61
69009;SHT31;56065;52.472;13.380;2023-08-06T06:38:46;19.85;86.25
69009;SHT31;56065;52.472;13.380;2023-08-06T06:41:11;19.90;86.10
69009;SHT31;56065;52.472;13.380;2023-08-06T06:43:37;20.01;86.14
69009;SHT31;56065;52.472;13.380;2023-08-06T06:46:03;20.10;85.92
69009;SHT31;56065;52.472;13.380;2023-08-06T06:48:31;20.12;85.43
69009;SHT31;56065;52.472;13.380;2023-08-06T06:50:56;20.12;85.23
69009;SHT31;56065;52.472;13.380;2023-08-06T06:53:22;20.16;85.06
69009;SHT31;56065;52.472;13.380;2023-08-06T06:55:55;20.27;84.97
69009;SHT31;56065;52.472;13.380;2023-08-06T06:58:20;20.18;84.84
69009;SHT31;56065;52.472;13.380;2023-08-06T07:00:47;20.26;84.69
69009;SHT31;56065;52.472;13.380;2023-08-06T07:03:13;20.31;84.60
69009;SHT31;56065;52.472;13.380;2023-08-06T07:05:38;20.33;84.51
69009;SHT31;56065;52.472;13.380;2023-08-06T07:08:04;20.44;84.61
69009;SHT31;56065;52.472;13.380;2023-08-06T07:10:29;20.49;84.50
69009;SHT31;56065;52.472;13.380;2023-08-06T07:12:54;20.54;83.94
69009;SHT31;56065;52.472;13.380;2023-08-06T07:15:20;20.61;83.85
69009;SHT31;56065;52.472;13.380;2023-08-06T07:17:45;20.71;83.35
69009;SHT31;56065;52.472;13.380;2023-08-06T07:20:11;20.78;83.38
69009;SHT31;56065;52.472;13.380;2023-08-06T07:22:36;20.91;83.63
69009;SHT31;56065;52.472;13.380;2023-08-06T07:25:02;20.91;83.28
69009;SHT31;56065;52.472;13.380;2023-08-06T07:27:27;20.92;83.11
69009;SHT31;56065;52.472;13.380;2023-08-06T07:29:52;20.98;83.23
69009;SHT31;56065;52.472;13.380;2023-08-06T07:32:18;20.96;83.24
69009;SHT31;56065;52.472;13.380;2023-08-06T07:34:43;20.98;83.12
69009;SHT31;56065;52.472;13.380;2023-08-06T07:37:08;20.82;82.80
69009;SHT31;56065;52.472;13.380;2023-08-06T07:39:34;20.78;83.11
69009;SHT31;56065;52.472;13.380;2023-08-06T07:41:59;20.71;83.42
69009;SHT31;56065;52.472;13.380;2023-08-06T07:44:27;20.57;82.90
69009;SHT31;56065;52.472;13.380;2023-08-06T07:46:52;20.48;83.31
69009;SHT31;56065;52.472;13.380;2023-08-06T07:49:18;20.52;83.42
69009;SHT31;56065;52.472;13.380;2023-08-06T07:51:43;20.51;83.63
69009;SHT31;56065;52.472;13.380;2023-08-06T07:54:08;20.48;83.74
69009;SHT31;56065;52.472;13.380;2023-08-06T07:56:34;20.55;83.86
69009;SHT31;56065;52.472;13.380;2023-08-06T07:59:01;20.63;83.97
69009;SHT31;56065;52.472;13.380;2023-08-06T08:01:26;20.64;84.52
69009;SHT31;56065;52.472;13.380;2023-08-06T08:03:51;20.72;84.23
69009;SHT31;56065;52.472;13.380;2023-08-06T08:06:17;20.75;84.17
69009;SHT31;56065;52.472;13.380;2023-08-06T08:08:42;20.91;83.99
69009;SHT31;56065;52.472;13.380;2023-08-06T08:11:07;21.02;83.78
69009;SHT31;56065;52.472;13.380;2023-08-06T08:13:33;21.15;83.03
69009;SHT31;56065;52.472;13.380;2023-08-06T08:15:59;21.27;82.92
69009;SHT31;56065;52.472;13.380;2023-08-06T08:18:25;21.43;82.43
69009;SHT31;56065;52.472;13.380;2023-08-06T08:20:51;21.43;82.49
69009;SHT31;56065;52.472;13.380;2023-08-06T08:23:16;21.43;82.38
69009;SHT31;56065;52.472;13.380;2023-08-06T08:25:41;21.63;82.31
69009;SHT31;56065;52.472;13.380;2023-08-06T08:28:07;21.66;82.35
69009;SHT31;56065;52.472;13.380;2023-08-06T08:30:33;21.77;82.57
69009;SHT31;56065;52.472;13.380;2023-08-06T08:32:58;21.83;82.68
69009;SHT31;56065;52.472;13.380;2023-08-06T08:35:23;21.94;82.42
69009;SHT31;56065;52.472;13.380;2023-08-06T08:37:49;22.02;81.93
69009;SHT31;56065;52.472;13.380;2023-08-06T08:40:15;22.08;81.88
69009;SHT31;56065;52.472;13.380;2023-08-06T08:42:41;22.12;81.81
69009;SHT31;56065;52.472;13.380;2023-08-06T08:45:13;22.22;81.84
69009;SHT31;56065;52.472;13.380;2023-08-06T08:47:42;22.32;81.94
69009;SHT31;56065;52.472;13.380;2023-08-06T08:50:09;22.38;81.36
69009;SHT31;56065;52.472;13.380;2023-08-06T08:52:36;22.44;81.21
69009;SHT31;56065;52.472;13.380;2023-08-06T08:55:02;22.41;81.23
69009;SHT31;56065;52.472;13.380;2023-08-06T08:57:27;22.42;81.23
69009;SHT31;56065;52.472;13.380;2023-08-06T08:59:52;22.44;81.13
69009;SHT31;56065;52.472;13.380;2023-08-06T09:02:18;22.46;81.27
69009;SHT31;56065;52.472;13.380;2023-08-06T09:04:46;22.41;80.97
69009;SHT31;56065;52.472;13.380;2023-08-06T09:07:17;22.34;80.78
69009;SHT31;56065;52.472;13.380;2023-08-06T09:09:43;22.28;80.90
69009;SHT31;56065;52.472;13.380;2023-08-06T09:12:15;22.09;80.88
69009;SHT31;56065;52.472;13.380;2023-08-06T09:14:40;22.04;81.17
69009;SHT31;56065;52.472;13.380;2023-08-06T09:17:07;22.09;81.47
69009;SHT31;56065;52.472;13.380;2023-08-06T09:19:32;22.12;80.94
69009;SHT31;56065;52.472;13.380;2023-08-06T09:21:58;22.16;81.43
69009;SHT31;56065;52.472;13.380;2023-08-06T09:24:24;22.15;81.54
69009;SHT31;56065;52.472;13.380;2023-08-06T09:26:51;22.18;81.77
69009;SHT31;56065;52.472;13.380;2023-08-06T09:29:16;22.28;81.57
69009;SHT31;56065;52.472;13.380;2023-08-06T09:31:43;22.28;81.33
69009;SHT31;56065;52.472;13.380;2023-08-06T09:34:18;22.29;81.36
69009;SHT31;56065;52.472;13.380;2023-08-06T09:36:48;22.29;81.02
69009;SHT31;56065;52.472;13.380;2023-08-06T09:39:17;22.21;81.55
69009;SHT31;56065;52.472;13.380;2023-08-06T09:41:43;22.25;81.73
69009;SHT31;56065;52.472;13.380;2023-08-06T09:44:15;22.29;81.74
69009;SHT31;56065;52.472;13.380;2023-08-06T09:46:43;22.31;81.80
69009;SHT31;56065;52.472;13.380;2023-08-06T09:49:08;22.34;81.75
69009;SHT31;56065;52.472;13.380;2023-08-06T09:51:36;22.34;81.83
69009;SHT31;56065;52.472;13.380;2023-08-06T09:54:05;22.32;81.72
69009;SHT31;56065;52.472;13.380;2023-08-06T09:56:33;22.26;81.73
69009;SHT31;56065;52.472;13.380;2023-08-06T09:59:04;22.38;81.89
69009;SHT31;56065;52.472;13.380;2023-08-06T10:01:32;22.48;81.71
69009;SHT31;56065;52.472;13.380;2023-08-06T10:03:59;22.57;81.69
69009;SHT31;56065;52.472;13.380;2023-08-06T10:06:26;22.65;81.76
69009;SHT31;56065;52.472;13.380;2023-08-06T10:08:53;22.65;81.11
69009;SHT31;56065;52.472;13.380;2023-08-06T10:11:21;22.67;80.91
69009;SHT31;56065;52.472;13.380;2023-08-06T10:13:49;22.75;81.01
69009;SHT31;56065;52.472;13.380;2023-08-06T10:16:15;22.70;80.52
69009;SHT31;56065;52.472;13.380;2023-08-06T10:18:42;22.56;80.38
69009;SHT31;56065;52.472;13.380;2023-08-06T10:21:08;22.44;80.57
69009;SHT31;56065;52.472;13.380;2023-08-06T10:23:35;22.39;81.12
69009;SHT31;56065;52.472;13.380;2023-08-06T10:26:02;22.29;81.70
69009;SHT31;56065;52.472;13.380;2023-08-06T10:28:36;22.25;81.86
69009;SHT31;56065;52.472;13.380;2023-08-06T10:31:01;22.24;81.93
69009;SHT31;56065;52.472;13.380;2023-08-06T10:33:43;22.18;82.83
69009;SHT31;56065;52.472;13.380;2023-08-06T10:36:09;22.18;82.58
69009;SHT31;56065;52.472;13.380;2023-08-06T10:38:35;22.21;82.39
69009;SHT31;56065;52.472;13.380;2023-08-06T10:41:03;22.15;82.38
69009;SHT31;56065;52.472;13.380;2023-08-06T10:45:54;22.16;82.51
69009;SHT31;56065;52.472;13.380;2023-08-06T10:48:37;21.98;82.65
69009;SHT31;56065;52.472;13.380;2023-08-06T10:51:06;21.95;82.46
69009;SHT31;56065;52.472;13.380;2023-08-06T10:53:32;21.84;82.74
69009;SHT31;56065;52.472;13.380;2023-08-06T10:55:57;21.73;83.17
69009;SHT31;56065;52.472;13.380;2023-08-06T10:58:23;21.58;83.32
69009;SHT31;56065;52.472;13.380;2023-08-06T11:00:48;21.64;83.32
69009;SHT31;56065;52.472;13.380;2023-08-06T11:03:14;21.78;83.29
69009;SHT31;56065;52.472;13.380;2023-08-06T11:05:40;21.93;83.51
69009;SHT31;56065;52.472;13.380;2023-08-06T11:08:05;22.01;83.13
69009;SHT31;56065;52.472;13.380;2023-08-06T11:10:33;22.04;82.56
69009;SHT31;56065;52.472;13.380;2023-08-06T11:13:03;22.05;82.36
69009;SHT31;56065;52.472;13.380;2023-08-06T11:15:30;22.11;82.57
69009;SHT31;56065;52.472;13.380;2023-08-06T11:17:55;22.19;82.78
69009;SHT31;56065;52.472;13.380;2023-08-06T11:20:20;22.32;82.40
69009;SHT31;56065;52.472;13.380;2023-08-06T11:22:47;22.45;82.08
69009;SHT31;56065;52.472;13.380;2023-08-06T11:25:13;22.51;81.82
69009;SHT31;56065;52.472;13.380;2023-08-06T11:27:38;22.53;81.40
69009;SHT31;56065;52.472;13.380;2023-08-06T11:30:04;22.59;81.23
69009;SHT31;56065;52.472;13.380;2023-08-06T11:32:29;22.60;81.26
69009;SHT31;56065;52.472;13.380;2023-08-06T11:34:55;22.62;81.26
69009;SHT31;56065;52.472;13.380;2023-08-06T11:37:21;22.62;81.61
69009;SHT31;56065;52.472;13.380;2023-08-06T11:39:48;22.63;81.74
69009;SHT31;56065;52.472;13.380;2023-08-06T11:42:14;22.69;81.83
69009;SHT31;56065;52.472;13.380;2023-08-06T11:44:40;22.62;81.48
69009;SHT31;56065;52.472;13.380;2023-08-06T11:47:12;22.63;81.85
69009;SHT31;56065;52.472;13.380;2023-08-06T11:49:41;22.60;81.47
69009;SHT31;56065;52.472;13.380;2023-08-06T11:52:25;22.55;81.27
69009;SHT31;56065;52.472;13.380;2023-08-06T11:55:02;22.56;81.28
69009;SHT31;56065;52.472;13.380;2023-08-06T11:57:31;22.62;81.23
69009;SHT31;56065;52.472;13.380;2023-08-06T12:00:07;22.56;81.04
69009;SHT31;56065;52.472;13.380;2023-08-06T12:02:34;22.49;81.30
69009;SHT31;56065;52.472;13.380;2023-08-06T12:07:40;22.25;81.78
69009;SHT31;56065;52.472;13.380;2023-08-06T12:10:06;22.14;82.05
69009;SHT31;56065;52.472;13.380;2023-08-06T12:12:32;22.08;82.03
69009;SHT31;56065;52.472;13.380;2023-08-06T12:14:57;22.01;82.13
69009;SHT31;56065;52.472;13.380;2023-08-06T12:17:24;21.83;82.69
69009;SHT31;56065;52.472;13.380;2023-08-06T12:19:50;21.73;83.60
69009;SHT31;56065;52.472;13.380;2023-08-06T12:22:16;21.60;83.20
69009;SHT31;56065;52.472;13.380;2023-08-06T12:24:45;21.54;83.04
69009;SHT31;56065;52.472;13.380;2023-08-06T12:27:11;21.45;83.07
69009;SHT31;56065;52.472;13.380;2023-08-06T12:29:40;21.37;83.02
69009;SHT31;56065;52.472;13.380;2023-08-06T12:32:06;21.40;83.56
69009;SHT31;56065;52.472;13.380;2023-08-06T12:34:32;21.29;83.49
69009;SHT31;56065;52.472;13.380;2023-08-06T12:36:57;21.25;83.68
69009;SHT31;56065;52.472;13.380;2023-08-06T12:39:22;21.23;83.85
69009;SHT31;56065;52.472;13.380;2023-08-06T12:41:48;21.18;83.42
69009;SHT31;56065;52.472;13.380;2023-08-06T12:44:14;21.20;83.15
69009;SHT31;56065;52.472;13.380;2023-08-06T12:46:39;21.26;83.46
69009;SHT31;56065;52.472;13.380;2023-08-06T12:49:04;21.27;83.43
69009;SHT31;56065;52.472;13.380;2023-08-06T12:51:31;21.39;83.70
69009;SHT31;56065;52.472;13.380;2023-08-06T12:53:56;21.40;83.64
69009;SHT31;56065;52.472;13.380;2023-08-06T12:56:21;21.39;83.53
69009;SHT31;56065;52.472;13.380;2023-08-06T12:58:47;21.39;83.83
69009;SHT31;56065;52.472;13.380;2023-08-06T13:01:12;21.36;84.20
69009;SHT31;56065;52.472;13.380;2023-08-06T13:03:37;21.40;84.21
69009;SHT31;56065;52.472;13.380;2023-08-06T13:06:03;21.36;84.47
69009;SHT31;56065;52.472;13.380;2023-08-06T13:08:28;21.35;84.51
69009;SHT31;56065;52.472;13.380;2023-08-06T13:10:54;21.40;84.58
69009;SHT31;56065;52.472;13.380;2023-08-06T13:13:19;21.37;83.97
69009;SHT31;56065;52.472;13.380;2023-08-06T13:15:44;21.35;83.59
69009;SHT31;56065;52.472;13.380;2023-08-06T13:18:10;21.32;83.66
69009;SHT31;56065;52.472;13.380;2023-08-06T13:20:39;21.23;83.48
69009;SHT31;56065;52.472;13.380;2023-08-06T13:23:07;21.20;83.65
69009;SHT31;56065;52.472;13.380;2023-08-06T13:25:32;21.23;83.58
69009;SHT31;56065;52.472;13.380;2023-08-06T13:28:04;21.16;83.14
69009;SHT31;56065;52.472;13.380;2023-08-06T13:30:30;21.15;83.21
69009;SHT31;56065;52.472;13.380;2023-08-06T13:32:55;21.07;83.20
69009;SHT31;56065;52.472;13.380;2023-08-06T13:35:22;21.06;83.04
69009;SHT31;56065;52.472;13.380;2023-08-06T13:37:47;20.96;83.33
69009;SHT31;56065;52.472;13.380;2023-08-06T13:40:13;20.96;83.33
69009;SHT31;56065;52.472;13.380;2023-08-06T13:42:39;20.98;83.31
69009;SHT31;56065;52.472;13.380;2023-08-06T13:45:05;20.99;83.64
69009;SHT31;56065;52.472;13.380;2023-08-06T13:47:31;21.00;83.48
69009;SHT31;56065;52.472;13.380;2023-08-06T13:49:57;21.06;83.22
69009;SHT31;56065;52.472;13.380;2023-08-06T13:52:22;21.09;83.42
69009;SHT31;56065;52.472;13.380;2023-08-06T13:54:47;21.05;83.84
69009;SHT31;56065;52.472;13.380;2023-08-06T13:57:13;21.10;84.09
69009;SHT31;56065;52.472;13.380;2023-08-06T13:59:38;21.13;84.14
69009;SHT31;56065;52.472;13.380;2023-08-06T14:02:04;21.20;84.23
69009;SHT31;56065;52.472;13.380;2023-08-06T14:04:29;21.29;84.11
69009;SHT31;56065;52.472;13.380;2023-08-06T14:06:54;21.35;84.04
69009;SHT31;56065;52.472;13.380;2023-08-06T14:09:20;21.33;84.10
69009;SHT31;56065;52.472;13.380;2023-08-06T14:11:45;21.30;84.23
69009;SHT31;56065;52.472;13.380;2023-08-06T14:14:11;21.36;84.10
69009;SHT31;56065;52.472;13.380;2023-08-06T14:16:36;21.36;84.69
69009;SHT31;56065;52.472;13.380;2023-08-06T14:19:02;21.39;84.79
69009;SHT31;56065;52.472;13.380;2023-08-06T14:21:28;21.42;84.53
69009;SHT31;56065;52.472;13.380;2023-08-06T14:23:53;21.39;84.67
69009;SHT31;56065;52.472;13.380;2023-08-06T14:26:19;21.32;84.53
69009;SHT31;56065;52.472;13.380;2023-08-06T14:28:44;21.27;84.41
69009;SHT31;56065;52.472;13.380;2023-08-06T14:31:10;21.22;84.21
69009;SHT31;56065;52.472;13.380;2023-08-06T14:33:36;21.16;84.93
69009;SHT31;56065;52.472;13.380;2023-08-06T14:36:01;21.18;84.87
69009;SHT31;56065;52.472;13.380;2023-08-06T14:38:27;21.20;84.81
69009;SHT31;56065;52.472;13.380;2023-08-06T14:40:52;21.23;84.74
69009;SHT31;56065;52.472;13.380;2023-08-06T14:43:17;21.22;84.93
69009;SHT31;56065;52.472;13.380;2023-08-06T14:45:44;21.10;84.30
69009;SHT31;56065;52.472;13.380;2023-08-06T14:48:10;21.16;84.23
69009;SHT31;56065;52.472;13.380;2023-08-06T14:50:35;21.13;84.37
69009;SHT31;56065;52.472;13.380;2023-08-06T14:53:01;21.12;84.35
69009;SHT31;56065;52.472;13.380;2023-08-06T14:55:28;21.10;84.35
69009;SHT31;56065;52.472;13.380;2023-08-06T14:57:53;21.10;84.80
69009;SHT31;56065;52.472;13.380;2023-08-06T15:00:19;21.15;84.81
69009;SHT31;56065;52.472;13.380;2023-08-06T15:02:45;21.22;84.63
69009;SHT31;56065;52.472;13.380;2023-08-06T15:05:11;21.32;84.31
69009;SHT31;56065;52.472;13.380;2023-08-06T15:07:36;21.37;84.38
69009;SHT31;56065;52.472;13.380;2023-08-06T15:10:04;21.45;84.31
69009;SHT31;56065;52.472;13.380;2023-08-06T15:12:31;21.54;83.58
69009;SHT31;56065;52.472;13.380;2023-08-06T15:14:58;21.56;84.07
69009;SHT31;56065;52.472;13.380;2023-08-06T15:17:23;21.60;83.81
69009;SHT31;56065;52.472;13.380;2023-08-06T15:19:49;21.64;84.08